sensor_id;sensor_type;location;lat;lon;timestamp;temperature;humidity
65472;DHT22;52068;50.710;14.492;2023-07-31T00:01:59;21.80;58.17
65472;DHT22;52068;50.710;14.492;2023-07-31T00:04:24;21.78;58.14
65472;DHT22;52068;50.710;14.492;2023-07-31T00:06:49;21.80;58.08
65472;DHT22;52068;50.710;14.492;2023-07-31T00:09:15;21.78;58.16
65472;DHT22;52068;50.710;14.492;2023-07-31T00:11:40;21.78;58.00
65472;DHT22;52068;50.710;14.492;2023-07-31T00:14:05;21.75;58.01
65472;DHT22;52068;50.710;14.492;2023-07-31T00:16:31;21.75;57.77
65472;DHT22;52068;50.710;14.492;2023-07-31T00:18:56;21.75;57.95
65472;DHT22;52068;50.710;14.492;2023-07-31T00:21:21;21.75;57.96
65472;DHT22;52068;50.710;14.492;2023-07-31T00:23:47;21.73;57.89
65472;DHT22;52068;50.710;14.492;2023-07-31T00:26:12;21.71;57.92
65472;DHT22;52068;50.710;14.492;2023-07-31T00:28:37;21.73;58.08
65472;DHT22;52068;50.710;14.492;2023-07-31T00:31:03;21.70;58.02
65472;DHT22;52068;50.710;14.492;2023-07-31T00:33:30;21.70;58.00
65472;DHT22;52068;50.710;14.492;2023-07-31T00:35:56;21.70;58.09
65472;DHT22;52068;50.710;14.492;2023-07-31T00:38:21;21.67;58.20
65472;DHT22;52068;50.710;14.492;2023-07-31T00:40:47;21.65;58.04
65472;DHT22;52068;50.710;14.492;2023-07-31T00:43:12;21.67;57.95
65472;DHT22;52068;50.710;14.492;2023-07-31T00:45:38;21.63;57.69
65472;DHT22;52068;50.710;14.492;2023-07-31T00:48:04;21.63;57.85
65472;DHT22;52068;50.710;14.492;2023-07-31T00:50:31;21.63;57.75
65472;DHT22;52068;50.710;14.492;2023-07-31T00:52:56;21.64;57.69
65472;DHT22;52068;50.710;14.492;2023-07-31T00:55:22;21.63;57.88
65472;DHT22;52068;50.710;14.492;2023-07-31T00:57:48;21.64;57.73
65472;DHT22;52068;50.710;14.492;2023-07-31T01:00:13;21.63;57.69
65472;DHT22;52068;50.710;14.492;2023-07-31T01:02:38;21.60;57.85
65472;DHT22;52068;50.710;14.492;2023-07-31T01:05:04;21.60;57.89
65472;DHT22;52068;50.710;14.492;2023-07-31T01:11:02;21.55;57.71
65472;DHT22;52068;50.710;14.492;2023-07-31T01:13:30;21.55;57.67
65472;DHT22;52068;50.710;14.492;2023-07-31T01:15:55;21.51;57.69
65472;DHT22;52068;50.710;14.492;2023-07-31T01:18:20;21.51;58.18
65472;DHT22;52068;50.710;14.492;2023-07-31T01:23:51;21.50;57.86
65472;DHT22;52068;50.710;14.492;2023-07-31T01:26:23;21.49;57.78
65472;DHT22;52068;50.710;14.492;2023-07-31T01:31:24;21.47;57.96
65472;DHT22;52068;50.710;14.492;2023-07-31T01:33:53;21.49;57.64
65472;DHT22;52068;50.710;14.492;2023-07-31T01:36:19;21.47;57.75
65472;DHT22;52068;50.710;14.492;2023-07-31T01:38:45;21.44;57.84
65472;DHT22;52068;50.710;14.492;2023-07-31T01:41:10;21.43;57.40
65472;DHT22;52068;50.710;14.492;2023-07-31T01:43:35;21.43;57.70
65472;DHT22;52068;50.710;14.492;2023-07-31T01:46:01;21.42;57.79
65472;DHT22;52068;50.710;14.492;2023-07-31T01:48:26;21.42;57.53
65472;DHT22;52068;50.710;14.492;2023-07-31T01:50:51;21.40;57.59
65472;DHT22;52068;50.710;14.492;2023-07-31T01:53:17;21.36;57.32
65472;DHT22;52068;50.710;14.492;2023-07-31T01:55:42;21.39;57.67
65472;DHT22;52068;50.710;14.492;2023-07-31T01:58:09;21.40;57.64
65472;DHT22;52068;50.710;14.492;2023-07-31T02:00:34;21.39;58.29
65472;DHT22;52068;50.710;14.492;2023-07-31T02:03:00;21.36;58.14
65472;DHT22;52068;50.710;14.492;2023-07-31T02:05:25;21.36;57.78
65472;DHT22;52068;50.710;14.492;2023-07-31T02:07:50;21.37;57.71
65472;DHT22;52068;50.710;14.492;2023-07-31T02:10:16;21.37;57.80
65472;DHT22;52068;50.710;14.492;2023-07-31T02:12:42;21.37;57.48
65472;DHT22;52068;50.710;14.492;2023-07-31T02:15:07;21.33;57.52
65472;DHT22;52068;50.710;14.492;2023-07-31T02:17:33;21.34;57.63
65472;DHT22;52068;50.710;14.492;2023-07-31T02:19:58;21.36;57.70
65472;DHT22;52068;50.710;14.492;2023-07-31T02:22:23;21.34;57.80
65472;DHT22;52068;50.710;14.492;2023-07-31T02:24:49;21.34;57.46
65472;DHT22;52068;50.710;14.492;2023-07-31T02:27:14;21.36;57.51
65472;DHT22;52068;50.710;14.492;2023-07-31T02:29:39;21.30;57.55
65472;DHT22;52068;50.710;14.492;2023-07-31T02:32:05;21.30;57.67
65472;DHT22;52068;50.710;14.492;2023-07-31T02:34:30;21.29;57.62
65472;DHT22;52068;50.710;14.492;2023-07-31T02:36:56;21.27;57.47
65472;DHT22;52068;50.710;14.492;2023-07-31T02:39:21;21.26;57.51
65472;DHT22;52068;50.710;14.492;2023-07-31T02:41:46;21.24;57.58
65472;DHT22;52068;50.710;14.492;2023-07-31T02:44:12;21.24;57.24
65472;DHT22;52068;50.710;14.492;2023-07-31T02:46:39;21.24;57.20
65472;DHT22;52068;50.710;14.492;2023-07-31T02:49:05;21.23;57.21
65472;DHT22;52068;50.710;14.492;2023-07-31T02:51:30;21.20;57.54
65472;DHT22;52068;50.710;14.492;2023-07-31T02:53:55;21.23;57.52
65472;DHT22;52068;50.710;14.492;2023-07-31T02:56:21;21.23;57.73
65472;DHT22;52068;50.710;14.492;2023-07-31T02:58:46;21.22;57.23
65472;DHT22;52068;50.710;14.492;2023-07-31T03:01:12;21.20;57.78
65472;DHT22;52068;50.710;14.492;2023-07-31T03:03:37;21.20;57.50
65472;DHT22;52068;50.710;14.492;2023-07-31T03:06:02;21.20;57.61
65472;DHT22;52068;50.710;14.492;2023-07-31T03:08:28;21.20;57.73
65472;DHT22;52068;50.710;14.492;2023-07-31T03:10:53;21.19;57.35
65472;DHT22;52068;50.710;14.492;2023-07-31T03:13:19;21.18;57.57
65472;DHT22;52068;50.710;14.492;2023-07-31T03:15:44;21.18;57.74
65472;DHT22;52068;50.710;14.492;2023-07-31T03:18:09;21.16;57.39
65472;DHT22;52068;50.710;14.492;2023-07-31T03:20:35;21.14;57.49
65472;DHT22;52068;50.710;14.492;2023-07-31T03:23:00;21.14;57.30
65472;DHT22;52068;50.710;14.492;2023-07-31T03:25:25;21.14;57.40
65472;DHT22;52068;50.710;14.492;2023-07-31T03:27:51;21.18;57.54
65472;DHT22;52068;50.710;14.492;2023-07-31T03:30:16;21.14;57.41
65472;DHT22;52068;50.710;14.492;2023-07-31T03:32:42;21.13;57.70
65472;DHT22;52068;50.710;14.492;2023-07-31T03:35:07;21.12;57.35
65472;DHT22;52068;50.710;14.492;2023-07-31T03:37:33;21.12;57.29
65472;DHT22;52068;50.710;14.492;2023-07-31T03:39:58;21.13;57.65
65472;DHT22;52068;50.710;14.492;2023-07-31T03:42:24;21.16;57.53
65472;DHT22;52068;50.710;14.492;2023-07-31T03:44:49;21.14;57.49
65472;DHT22;52068;50.710;14.492;2023-07-31T03:47:15;21.14;57.67
65472;DHT22;52068;50.710;14.492;2023-07-31T03:49:40;21.16;57.86
65472;DHT22;52068;50.710;14.492;2023-07-31T03:52:06;21.18;57.60
65472;DHT22;52068;50.710;14.492;2023-07-31T03:54:31;21.18;57.44
65472;DHT22;52068;50.710;14.492;2023-07-31T03:56:57;21.16;57.35
65472;DHT22;52068;50.710;14.492;2023-07-31T03:59:22;21.16;57.56
65472;DHT22;52068;50.710;14.492;2023-07-31T04:01:48;21.18;57.47
65472;DHT22;52068;50.710;14.492;2023-07-31T04:04:13;21.18;57.59
65472;DHT22;52068;50.710;14.492;2023-07-31T04:06:38;21.18;57.26
65472;DHT22;52068;50.710;14.492;2023-07-31T04:09:04;21.18;57.21
65472;DHT22;52068;50.710;14.492;2023-07-31T04:11:29;21.19;57.54
65472;DHT22;52068;50.710;14.492;2023-07-31T04:13:56;21.20;57.34
65472;DHT22;52068;50.710;14.492;2023-07-31T04:16:21;21.16;57.48
65472;DHT22;52068;50.710;14.492;2023-07-31T04:18:46;21.18;57.38
65472;DHT22;52068;50.710;14.492;2023-07-31T04:21:12;21.18;57.47
65472;DHT22;52068;50.710;14.492;2023-07-31T04:23:38;21.19;57.56
65472;DHT22;52068;50.710;14.492;2023-07-31T04:26:03;21.23;57.59
65472;DHT22;52068;50.710;14.492;2023-07-31T04:28:28;21.23;57.65
65472;DHT22;52068;50.710;14.492;2023-07-31T04:30:56;21.20;57.61
65472;DHT22;52068;50.710;14.492;2023-07-31T04:33:22;21.20;57.60
65472;DHT22;52068;50.710;14.492;2023-07-31T04:35:51;21.22;57.44
65472;DHT22;52068;50.710;14.492;2023-07-31T04:38:18;21.23;57.50
65472;DHT22;52068;50.710;14.492;2023-07-31T04:40:44;21.22;57.65
65472;DHT22;52068;50.710;14.492;2023-07-31T04:43:09;21.24;57.59
65472;DHT22;52068;50.710;14.492;2023-07-31T04:45:35;21.27;57.61
65472;DHT22;52068;50.710;14.492;2023-07-31T04:48:00;21.27;57.50
65472;DHT22;52068;50.710;14.492;2023-07-31T04:50:25;21.27;57.58
65472;DHT22;52068;50.710;14.492;2023-07-31T04:52:51;21.27;57.61
65472;DHT22;52068;50.710;14.492;2023-07-31T04:55:17;21.29;57.64
65472;DHT22;52068;50.710;14.492;2023-07-31T04:57:42;21.29;57.68
65472;DHT22;52068;50.710;14.492;2023-07-31T05:00:08;21.30;57.68
65472;DHT22;52068;50.710;14.492;2023-07-31T05:02:33;21.32;57.62
65472;DHT22;52068;50.710;14.492;2023-07-31T05:04:59;21.34;57.72
65472;DHT22;52068;50.710;14.492;2023-07-31T05:07:24;21.34;57.66
65472;DHT22;52068;50.710;14.492;2023-07-31T05:09:49;21.36;57.82
65472;DHT22;52068;50.710;14.492;2023-07-31T05:12:15;21.37;57.69
65472;DHT22;52068;50.710;14.492;2023-07-31T05:14:40;21.42;57.98
65472;DHT22;52068;50.710;14.492;2023-07-31T05:17:05;21.42;57.88
65472;DHT22;52068;50.710;14.492;2023-07-31T05:19:31;21.47;58.05
65472;DHT22;52068;50.710;14.492;2023-07-31T05:21:56;21.42;58.00
65472;DHT22;52068;50.710;14.492;2023-07-31T05:24:21;21.47;58.63
65472;DHT22;52068;50.710;14.492;2023-07-31T05:26:47;21.57;58.79
65472;DHT22;52068;50.710;14.492;2023-07-31T05:29:12;21.68;58.68
65472;DHT22;52068;50.710;14.492;2023-07-31T05:31:38;21.80;58.51
65472;DHT22;52068;50.710;14.492;2023-07-31T05:34:04;21.90;58.48
65472;DHT22;52068;50.710;14.492;2023-07-31T05:36:29;21.98;58.29
65472;DHT22;52068;50.710;14.492;2023-07-31T05:38:54;22.06;58.16
65472;DHT22;52068;50.710;14.492;2023-07-31T05:41:20;22.15;58.02
65472;DHT22;52068;50.710;14.492;2023-07-31T05:43:45;22.19;57.89
65472;DHT22;52068;50.710;14.492;2023-07-31T05:46:11;22.24;56.91
65472;DHT22;52068;50.710;14.492;2023-07-31T05:48:37;22.24;56.71
65472;DHT22;52068;50.710;14.492;2023-07-31T05:51:02;22.21;56.63
65472;DHT22;52068;50.710;14.492;2023-07-31T05:53:28;22.15;56.61
65472;DHT22;52068;50.710;14.492;2023-07-31T05:55:53;22.12;56.67
65472;DHT22;52068;50.710;14.492;2023-07-31T05:58:19;22.06;56.64
65472;DHT22;52068;50.710;14.492;2023-07-31T06:00:44;22.02;56.71
65472;DHT22;52068;50.710;14.492;2023-07-31T06:03:09;22.00;56.59
65472;DHT22;52068;50.710;14.492;2023-07-31T06:05:35;21.94;56.99
65472;DHT22;52068;50.710;14.492;2023-07-31T06:08:00;21.92;56.84
65472;DHT22;52068;50.710;14.492;2023-07-31T06:10:26;21.87;56.95
65472;DHT22;52068;50.710;14.492;2023-07-31T06:12:52;21.85;56.99
65472;DHT22;52068;50.710;14.492;2023-07-31T06:15:17;21.84;57.19
65472;DHT22;52068;50.710;14.492;2023-07-31T06:17:44;21.83;57.15
65472;DHT22;52068;50.710;14.492;2023-07-31T06:20:10;21.81;57.27
65472;DHT22;52068;50.710;14.492;2023-07-31T06:22:35;21.78;57.24
65472;DHT22;52068;50.710;14.492;2023-07-31T06:25:01;21.77;57.28
65472;DHT22;52068;50.710;14.492;2023-07-31T06:27:26;21.77;57.18
65472;DHT22;52068;50.710;14.492;2023-07-31T06:29:51;21.80;57.12
65472;DHT22;52068;50.710;14.492;2023-07-31T06:32:17;21.78;57.24
65472;DHT22;52068;50.710;14.492;2023-07-31T06:34:42;21.78;57.42
65472;DHT22;52068;50.710;14.492;2023-07-31T06:37:07;21.73;57.52
65472;DHT22;52068;50.710;14.492;2023-07-31T06:39:33;21.77;57.20
65472;DHT22;52068;50.710;14.492;2023-07-31T06:41:58;21.75;57.24
65472;DHT22;52068;50.710;14.492;2023-07-31T06:44:24;21.75;57.23
65472;DHT22;52068;50.710;14.492;2023-07-31T06:46:49;21.74;57.28
65472;DHT22;52068;50.710;14.492;2023-07-31T06:49:14;21.73;57.33
65472;DHT22;52068;50.710;14.492;2023-07-31T06:51:43;21.71;57.53
65472;DHT22;52068;50.710;14.492;2023-07-31T06:54:09;21.70;57.49
65472;DHT22;52068;50.710;14.492;2023-07-31T06:56:35;21.71;57.43
65472;DHT22;52068;50.710;14.492;2023-07-31T06:59:00;21.70;57.58
65472;DHT22;52068;50.710;14.492;2023-07-31T07:01:26;21.67;57.43
65472;DHT22;52068;50.710;14.492;2023-07-31T07:03:51;21.67;57.57
65472;DHT22;52068;50.710;14.492;2023-07-31T07:06:17;21.70;57.46
65472;DHT22;52068;50.710;14.492;2023-07-31T07:08:43;21.71;57.55
65472;DHT22;52068;50.710;14.492;2023-07-31T07:11:08;21.68;57.55
65472;DHT22;52068;50.710;14.492;2023-07-31T07:13:34;21.71;57.46
65472;DHT22;52068;50.710;14.492;2023-07-31T07:15:59;21.70;57.49
65472;DHT22;52068;50.710;14.492;2023-07-31T07:18:25;21.71;57.37
65472;DHT22;52068;50.710;14.492;2023-07-31T07:20:51;21.68;57.62
65472;DHT22;52068;50.710;14.492;2023-07-31T07:23:17;21.70;57.59
65472;DHT22;52068;50.710;14.492;2023-07-31T07:25:44;21.68;57.46
65472;DHT22;52068;50.710;14.492;2023-07-31T07:28:10;21.70;57.43
65472;DHT22;52068;50.710;14.492;2023-07-31T07:30:35;21.70;57.63
65472;DHT22;52068;50.710;14.492;2023-07-31T07:33:01;21.67;57.70
65472;DHT22;52068;50.710;14.492;2023-07-31T07:35:26;21.68;57.67
65472;DHT22;52068;50.710;14.492;2023-07-31T07:37:51;21.68;57.66
65472;DHT22;52068;50.710;14.492;2023-07-31T07:40:17;21.67;57.59
65472;DHT22;52068;50.710;14.492;2023-07-31T07:42:42;21.68;57.63
65472;DHT22;52068;50.710;14.492;2023-07-31T07:45:08;21.68;57.73
65472;DHT22;52068;50.710;14.492;2023-07-31T07:47:34;21.68;57.72
65472;DHT22;52068;50.710;14.492;2023-07-31T07:49:59;21.65;57.76
65472;DHT22;52068;50.710;14.492;2023-07-31T07:52:24;21.68;57.98
65472;DHT22;52068;50.710;14.492;2023-07-31T07:54:50;21.68;57.97
65472;DHT22;52068;50.710;14.492;2023-07-31T07:57:16;21.70;57.71
65472;DHT22;52068;50.710;14.492;2023-07-31T07:59:41;21.68;57.89
65472;DHT22;52068;50.710;14.492;2023-07-31T08:02:07;21.68;57.90
65472;DHT22;52068;50.710;14.492;2023-07-31T08:04:32;21.70;57.90
65472;DHT22;52068;50.710;14.492;2023-07-31T08:06:58;21.68;57.89
65472;DHT22;52068;50.710;14.492;2023-07-31T08:09:23;21.74;57.80
65472;DHT22;52068;50.710;14.492;2023-07-31T08:11:48;21.73;57.71
65472;DHT22;52068;50.710;14.492;2023-07-31T08:14:14;21.73;57.74
65472;DHT22;52068;50.710;14.492;2023-07-31T08:16:39;21.70;57.92
65472;DHT22;52068;50.710;14.492;2023-07-31T08:19:05;21.73;57.65
65472;DHT22;52068;50.710;14.492;2023-07-31T08:21:31;21.73;57.76
65472;DHT22;52068;50.710;14.492;2023-07-31T08:23:56;21.74;57.69
65472;DHT22;52068;50.710;14.492;2023-07-31T08:26:22;21.78;57.74
65472;DHT22;52068;50.710;14.492;2023-07-31T08:28:47;21.78;57.62
65472;DHT22;52068;50.710;14.492;2023-07-31T08:31:13;21.78;57.58
65472;DHT22;52068;50.710;14.492;2023-07-31T08:33:39;21.80;57.60
65472;DHT22;52068;50.710;14.492;2023-07-31T08:36:05;21.78;57.70
65472;DHT22;52068;50.710;14.492;2023-07-31T08:38:31;21.78;57.71
65472;DHT22;52068;50.710;14.492;2023-07-31T08:40:57;21.78;57.77
65472;DHT22;52068;50.710;14.492;2023-07-31T08:43:25;21.83;57.60
65472;DHT22;52068;50.710;14.492;2023-07-31T08:45:51;21.84;57.55
65472;DHT22;52068;50.710;14.492;2023-07-31T08:48:17;21.90;57.65
65472;DHT22;52068;50.710;14.492;2023-07-31T08:50:43;21.88;57.51
65472;DHT22;52068;50.710;14.492;2023-07-31T08:53:08;21.94;57.62
65472;DHT22;52068;50.710;14.492;2023-07-31T08:55:35;21.92;57.50
65472;DHT22;52068;50.710;14.492;2023-07-31T08:58:02;21.95;57.44
65472;DHT22;52068;50.710;14.492;2023-07-31T09:00:29;21.97;57.40
65472;DHT22;52068;50.710;14.492;2023-07-31T09:03:15;21.98;57.37
65472;DHT22;52068;50.710;14.492;2023-07-31T09:05:45;21.97;57.29
65472;DHT22;52068;50.710;14.492;2023-07-31T09:08:12;22.00;57.42
65472;DHT22;52068;50.710;14.492;2023-07-31T09:10:42;22.02;57.28
65472;DHT22;52068;50.710;14.492;2023-07-31T09:13:08;22.02;57.10
65472;DHT22;52068;50.710;14.492;2023-07-31T09:15:34;22.06;56.99
65472;DHT22;52068;50.710;14.492;2023-07-31T09:18:01;22.09;57.02
65472;DHT22;52068;50.710;14.492;2023-07-31T09:20:27;22.11;57.03
65472;DHT22;52068;50.710;14.492;2023-07-31T09:22:52;22.15;56.98
65472;DHT22;52068;50.710;14.492;2023-07-31T09:25:24;22.18;56.94
65472;DHT22;52068;50.710;14.492;2023-07-31T09:30:25;22.21;56.70
65472;DHT22;52068;50.710;14.492;2023-07-31T09:33:00;22.22;56.73
65472;DHT22;52068;50.710;14.492;2023-07-31T09:35:31;22.22;56.69
65472;DHT22;52068;50.710;14.492;2023-07-31T09:38:16;22.24;56.71
65472;DHT22;52068;50.710;14.492;2023-07-31T09:40:47;22.24;56.70
65472;DHT22;52068;50.710;14.492;2023-07-31T09:43:20;22.25;56.82
65472;DHT22;52068;50.710;14.492;2023-07-31T09:45:47;22.24;56.61
65472;DHT22;52068;50.710;14.492;2023-07-31T09:48:17;22.25;56.66
65472;DHT22;52068;50.710;14.492;2023-07-31T09:50:47;22.26;56.46
65472;DHT22;52068;50.710;14.492;2023-07-31T09:53:14;22.31;56.69
65472;DHT22;52068;50.710;14.492;2023-07-31T09:55:41;22.32;56.47
65472;DHT22;52068;50.710;14.492;2023-07-31T09:58:08;22.32;56.45
65472;DHT22;52068;50.710;14.492;2023-07-31T10:00:34;22.36;56.20
65472;DHT22;52068;50.710;14.492;2023-07-31T10:03:04;22.38;56.39
65472;DHT22;52068;50.710;14.492;2023-07-31T10:05:38;22.41;56.34
65472;DHT22;52068;50.710;14.492;2023-07-31T10:08:06;22.41;56.02
65472;DHT22;52068;50.710;14.492;2023-07-31T10:10:32;22.42;56.02
65472;DHT22;52068;50.710;14.492;2023-07-31T10:13:01;22.42;55.87
65472;DHT22;52068;50.710;14.492;2023-07-31T10:15:27;22.43;56.29
65472;DHT22;52068;50.710;14.492;2023-07-31T10:17:53;22.43;56.03
65472;DHT22;52068;50.710;14.492;2023-07-31T10:20:20;22.48;56.16
65472;DHT22;52068;50.710;14.492;2023-07-31T10:22:46;22.51;55.98
65472;DHT22;52068;50.710;14.492;2023-07-31T10:25:13;22.51;56.07
65472;DHT22;52068;50.710;14.492;2023-07-31T10:27:40;22.56;55.94
65472;DHT22;52068;50.710;14.492;2023-07-31T10:30:08;22.56;56.13
65472;DHT22;52068;50.710;14.492;2023-07-31T10:32:35;22.60;55.72
65472;DHT22;52068;50.710;14.492;2023-07-31T10:35:02;22.62;55.85
65472;DHT22;52068;50.710;14.492;2023-07-31T10:37:29;22.60;55.50
65472;DHT22;52068;50.710;14.492;2023-07-31T10:42:38;22.63;55.69
65472;DHT22;52068;50.710;14.492;2023-07-31T10:45:08;22.63;55.90
65472;DHT22;52068;50.710;14.492;2023-07-31T10:47:42;22.64;55.67
65472;DHT22;52068;50.710;14.492;2023-07-31T10:52:48;22.66;55.40
65472;DHT22;52068;50.710;14.492;2023-07-31T10:55:39;22.64;55.26
65472;DHT22;52068;50.710;14.492;2023-07-31T10:58:10;22.62;55.78
65472;DHT22;52068;50.710;14.492;2023-07-31T11:00:43;22.62;55.51
65472;DHT22;52068;50.710;14.492;2023-07-31T11:03:17;22.64;55.36
65472;DHT22;52068;50.710;14.492;2023-07-31T11:10:45;22.70;55.09
65472;DHT22;52068;50.710;14.492;2023-07-31T11:13:11;22.74;55.16
65472;DHT22;52068;50.710;14.492;2023-07-31T11:15:37;22.79;55.52
65472;DHT22;52068;50.710;14.492;2023-07-31T11:18:03;22.86;55.26
65472;DHT22;52068;50.710;14.492;2023-07-31T11:20:32;22.86;55.60
65472;DHT22;52068;50.710;14.492;2023-07-31T11:23:02;22.90;54.98
65472;DHT22;52068;50.710;14.492;2023-07-31T11:25:32;22.89;55.47
65472;DHT22;52068;50.710;14.492;2023-07-31T11:28:09;22.90;55.22
65472;DHT22;52068;50.710;14.492;2023-07-31T11:30:35;22.92;55.04
65472;DHT22;52068;50.710;14.492;2023-07-31T11:33:02;22.93;54.82
65472;DHT22;52068;50.710;14.492;2023-07-31T11:35:32;22.93;55.05
65472;DHT22;52068;50.710;14.492;2023-07-31T11:37:58;22.94;54.94
65472;DHT22;52068;50.710;14.492;2023-07-31T11:40:23;22.94;54.80
65472;DHT22;52068;50.710;14.492;2023-07-31T11:42:55;22.96;55.05
65472;DHT22;52068;50.710;14.492;2023-07-31T11:45:20;22.93;55.19
65472;DHT22;52068;50.710;14.492;2023-07-31T11:47:46;22.94;54.99
65472;DHT22;52068;50.710;14.492;2023-07-31T11:50:11;22.93;54.87
65472;DHT22;52068;50.710;14.492;2023-07-31T11:52:43;22.92;54.69
65472;DHT22;52068;50.710;14.492;2023-07-31T11:55:09;22.96;54.97
65472;DHT22;52068;50.710;14.492;2023-07-31T11:57:39;22.97;54.89
65472;DHT22;52068;50.710;14.492;2023-07-31T12:00:07;22.99;55.06
65472;DHT22;52068;50.710;14.492;2023-07-31T12:02:33;22.96;54.82
65472;DHT22;52068;50.710;14.492;2023-07-31T12:04:59;22.97;55.03
65472;DHT22;52068;50.710;14.492;2023-07-31T12:07:25;23.02;55.25
65472;DHT22;52068;50.710;14.492;2023-07-31T12:09:54;23.03;54.85
65472;DHT22;52068;50.710;14.492;2023-07-31T12:12:21;23.06;54.93
65472;DHT22;52068;50.710;14.492;2023-07-31T12:14:47;23.08;55.11
65472;DHT22;52068;50.710;14.492;2023-07-31T12:17:14;23.10;54.33
65472;DHT22;52068;50.710;14.492;2023-07-31T12:19:39;23.14;54.77
65472;DHT22;52068;50.710;14.492;2023-07-31T12:22:15;23.14;54.88
65472;DHT22;52068;50.710;14.492;2023-07-31T12:24:42;23.17;54.48
65472;DHT22;52068;50.710;14.492;2023-07-31T12:29:36;23.14;54.36
65472;DHT22;52068;50.710;14.492;2023-07-31T12:32:01;23.17;53.84
65472;DHT22;52068;50.710;14.492;2023-07-31T12:34:27;23.15;54.49
65472;DHT22;52068;50.710;14.492;2023-07-31T12:36:53;23.18;55.07
65472;DHT22;52068;50.710;14.492;2023-07-31T12:39:19;23.18;54.66
65472;DHT22;52068;50.710;14.492;2023-07-31T12:41:44;23.15;54.90
65472;DHT22;52068;50.710;14.492;2023-07-31T12:44:09;23.15;54.85
65472;DHT22;52068;50.710;14.492;2023-07-31T12:46:35;23.15;54.93
65472;DHT22;52068;50.710;14.492;2023-07-31T12:49:00;23.18;54.66
65472;DHT22;52068;50.710;14.492;2023-07-31T12:51:26;23.13;54.42
65472;DHT22;52068;50.710;14.492;2023-07-31T12:53:51;23.14;54.37
65472;DHT22;52068;50.710;14.492;2023-07-31T12:56:17;23.11;54.53
65472;DHT22;52068;50.710;14.492;2023-07-31T12:58:43;23.13;54.57
65472;DHT22;52068;50.710;14.492;2023-07-31T13:01:08;23.14;54.47
65472;DHT22;52068;50.710;14.492;2023-07-31T13:03:33;23.17;54.36
65472;DHT22;52068;50.710;14.492;2023-07-31T13:05:59;23.21;54.22
65472;DHT22;52068;50.710;14.492;2023-07-31T13:08:24;23.24;54.13
65472;DHT22;52068;50.710;14.492;2023-07-31T13:10:49;23.33;53.99
65472;DHT22;52068;50.710;14.492;2023-07-31T13:13:15;23.35;53.88
65472;DHT22;52068;50.710;14.492;2023-07-31T13:15:41;23.40;53.67
65472;DHT22;52068;50.710;14.492;2023-07-31T13:18:06;23.44;53.63
65472;DHT22;52068;50.710;14.492;2023-07-31T13:20:32;23.47;53.50
65472;DHT22;52068;50.710;14.492;2023-07-31T13:22:57;23.52;53.44
65472;DHT22;52068;50.710;14.492;2023-07-31T13:25:22;23.52;53.46
65472;DHT22;52068;50.710;14.492;2023-07-31T13:27:48;23.58;53.40
65472;DHT22;52068;50.710;14.492;2023-07-31T13:30:13;23.61;53.46
65472;DHT22;52068;50.710;14.492;2023-07-31T13:32:38;23.59;53.38
65472;DHT22;52068;50.710;14.492;2023-07-31T13:35:07;23.61;53.44
65472;DHT22;52068;50.710;14.492;2023-07-31T13:37:33;23.62;53.42
65472;DHT22;52068;50.710;14.492;2023-07-31T13:39:59;23.64;53.42
65472;DHT22;52068;50.710;14.492;2023-07-31T13:42:24;23.65;53.27
65472;DHT22;52068;50.710;14.492;2023-07-31T13:44:50;23.69;53.37
65472;DHT22;52068;50.710;14.492;2023-07-31T13:47:15;23.68;53.37
65472;DHT22;52068;50.710;14.492;2023-07-31T13:49:40;23.69;53.36
65472;DHT22;52068;50.710;14.492;2023-07-31T13:52:08;23.71;53.36
65472;DHT22;52068;50.710;14.492;2023-07-31T13:54:33;23.75;53.37
65472;DHT22;52068;50.710;14.492;2023-07-31T13:56:59;23.78;53.35
65472;DHT22;52068;50.710;14.492;2023-07-31T13:59:24;23.79;53.34
65472;DHT22;52068;50.710;14.492;2023-07-31T14:01:50;23.82;53.26
65472;DHT22;52068;50.710;14.492;2023-07-31T14:04:15;23.84;53.23
65472;DHT22;52068;50.710;14.492;2023-07-31T14:06:42;23.88;53.17
65472;DHT22;52068;50.710;14.492;2023-07-31T14:09:08;23.90;53.08
65472;DHT22;52068;50.710;14.492;2023-07-31T14:11:33;23.93;53.18
65472;DHT22;52068;50.710;14.492;2023-07-31T14:13:59;23.95;53.12
65472;DHT22;52068;50.710;14.492;2023-07-31T14:16:24;23.96;53.10
65472;DHT22;52068;50.710;14.492;2023-07-31T14:18:50;23.98;53.07
65472;DHT22;52068;50.710;14.492;2023-07-31T14:21:15;23.99;53.08
65472;DHT22;52068;50.710;14.492;2023-07-31T14:23:41;24.01;53.03
65472;DHT22;52068;50.710;14.492;2023-07-31T14:26:07;24.02;53.01
65472;DHT22;52068;50.710;14.492;2023-07-31T14:28:32;24.01;52.97
65472;DHT22;52068;50.710;14.492;2023-07-31T14:30:58;24.02;52.98
65472;DHT22;52068;50.710;14.492;2023-07-31T14:33:23;24.02;53.08
65472;DHT22;52068;50.710;14.492;2023-07-31T14:35:48;24.03;53.04
65472;DHT22;52068;50.710;14.492;2023-07-31T14:38:14;24.03;52.97
65472;DHT22;52068;50.710;14.492;2023-07-31T14:40:39;24.05;53.05
65472;DHT22;52068;50.710;14.492;2023-07-31T14:43:05;24.05;52.87
65472;DHT22;52068;50.710;14.492;2023-07-31T14:45:30;24.03;52.74
65472;DHT22;52068;50.710;14.492;2023-07-31T14:47:56;24.01;52.54
65472;DHT22;52068;50.710;14.492;2023-07-31T14:50:21;24.02;52.44
65472;DHT22;52068;50.710;14.492;2023-07-31T14:52:48;24.06;51.48
65472;DHT22;52068;50.710;14.492;2023-07-31T14:55:13;24.03;49.85
65472;DHT22;52068;50.710;14.492;2023-07-31T14:57:38;23.95;49.05
65472;DHT22;52068;50.710;14.492;2023-07-31T15:00:04;23.93;49.82
65472;DHT22;52068;50.710;14.492;2023-07-31T15:02:37;23.89;49.38
65472;DHT22;52068;50.710;14.492;2023-07-31T15:05:03;23.93;48.51
65472;DHT22;52068;50.710;14.492;2023-07-31T15:07:28;23.95;48.11
65472;DHT22;52068;50.710;14.492;2023-07-31T15:09:54;23.85;48.73
65472;DHT22;52068;50.710;14.492;2023-07-31T15:12:19;23.84;49.04
65472;DHT22;52068;50.710;14.492;2023-07-31T15:14:44;23.82;49.21
65472;DHT22;52068;50.710;14.492;2023-07-31T15:17:10;23.84;48.82
65472;DHT22;52068;50.710;14.492;2023-07-31T15:19:35;23.86;49.06
65472;DHT22;52068;50.710;14.492;2023-07-31T15:22:02;23.92;48.55
65472;DHT22;52068;50.710;14.492;2023-07-31T15:24:28;23.93;48.63
65472;DHT22;52068;50.710;14.492;2023-07-31T15:26:53;23.92;48.23
65472;DHT22;52068;50.710;14.492;2023-07-31T15:29:20;23.92;48.43
65472;DHT22;52068;50.710;14.492;2023-07-31T15:31:46;23.89;49.53
65472;DHT22;52068;50.710;14.492;2023-07-31T15:34:12;23.92;48.54